AAL653 EDDF-KDFW
Flight info
| Callsign | AAL653 |
|---|---|
| Flight time | N/A |
| Altitude | 30000 |
| Route | OBOKA5G/25C OBOKA Z28 DIBIR DCT BUDIP DCT MIMVA DCT GETNO DCT NIBOG DCT PIKIL/M085F310 DCT 57N020W 57N030W 57N040W 56N050W DCT JANJO/N0491F320 DCT 5330N06000W 51N070W 46N080W/N0486F340 DCT KC81Q DCT RBS DCT KK45I DCT FSM DCT RRNET SEEVR4 |
| Aircraft | B77W/H-SDE1E2E3FGHIJ2J3J4J5M1RWXY/LB1D1 |
Departure
| Time | 2026-05-05 20:54 |
|---|---|
| Airport | Frankfurt Main Airport (EDDF) |
Arrival
| Time | N/A |
|---|---|
| Airport | Dallas Fort Worth International Airport (KDFW) |
| Time | Latitude | Longitude | Altitude | Speed | Heading |
|---|---|---|---|---|---|
| 2026-05-05 19:47 | 50.04748 | 8.56388 | 378 ft | 0 kts | 341° |
| 2026-05-05 20:36 | 50.04745 | 8.56390 | 377 ft | 1 kts | 341° |
| 2026-05-05 20:37 | 50.04732 | 8.56397 | 377 ft | 2 kts | 341° |
| 2026-05-05 20:37 | 50.04718 | 8.56405 | 377 ft | 3 kts | 341° |
| 2026-05-05 20:37 | 50.04696 | 8.56419 | 377 ft | 0 kts | 309° |
| 2026-05-05 20:37 | 50.04695 | 8.56421 | 377 ft | 0 kts | 301° |
| 2026-05-05 20:38 | 50.04695 | 8.56422 | 377 ft | 0 kts | 301° |
| 2026-05-05 20:39 | 50.04695 | 8.56421 | 377 ft | 0 kts | 301° |
| 2026-05-05 20:39 | 50.04693 | 8.56426 | 377 ft | 0 kts | 300° |
| 2026-05-05 20:39 | 50.04692 | 8.56429 | 377 ft | 0 kts | 296° |
| 2026-05-05 20:39 | 50.04689 | 8.56441 | 377 ft | 1 kts | 289° |
| 2026-05-05 20:40 | 50.04685 | 8.56463 | 377 ft | 1 kts | 279° |
| 2026-05-05 20:40 | 50.04683 | 8.56489 | 377 ft | 3 kts | 270° |
| 2026-05-05 20:40 | 50.04686 | 8.56522 | 377 ft | 1 kts | 255° |
| 2026-05-05 20:40 | 50.04686 | 8.56523 | 377 ft | 0 kts | 255° |
| 2026-05-05 20:41 | 50.04688 | 8.56531 | 377 ft | 1 kts | 254° |
| 2026-05-05 20:41 | 50.04689 | 8.56536 | 377 ft | 0 kts | 251° |
| 2026-05-05 20:43 | 50.04688 | 8.56534 | 377 ft | 1 kts | 250° |
| 2026-05-05 20:43 | 50.04658 | 8.56490 | 377 ft | 8 kts | 200° |
| 2026-05-05 20:43 | 50.04605 | 8.56476 | 377 ft | 6 kts | 188° |
| 2026-05-05 20:44 | 50.04567 | 8.56458 | 377 ft | 4 kts | 203° |
| 2026-05-05 20:44 | 50.04527 | 8.56413 | 377 ft | 8 kts | 232° |
| 2026-05-05 20:44 | 50.04504 | 8.56345 | 377 ft | 6 kts | 250° |
| 2026-05-05 20:44 | 50.04493 | 8.56292 | 377 ft | 4 kts | 250° |
| 2026-05-05 20:45 | 50.04456 | 8.56132 | 377 ft | 9 kts | 250° |
| 2026-05-05 20:45 | 50.04447 | 8.56099 | 377 ft | 11 kts | 243° |
| 2026-05-05 20:45 | 50.04387 | 8.56037 | 377 ft | 9 kts | 184° |
| 2026-05-05 20:46 | 50.04330 | 8.56061 | 377 ft | 7 kts | 155° |
| 2026-05-05 20:46 | 50.04297 | 8.56105 | 377 ft | 5 kts | 121° |
| 2026-05-05 20:46 | 50.04276 | 8.56182 | 377 ft | 10 kts | 126° |
| 2026-05-05 20:46 | 50.04218 | 8.56252 | 377 ft | 10 kts | 150° |
| 2026-05-05 20:47 | 50.04163 | 8.56308 | 377 ft | 8 kts | 122° |
| 2026-05-05 20:47 | 50.04154 | 8.56387 | 377 ft | 8 kts | 84° |
| 2026-05-05 20:47 | 50.04181 | 8.56509 | 377 ft | 12 kts | 68° |
| 2026-05-05 20:47 | 50.04210 | 8.56623 | 377 ft | 10 kts | 69° |
| 2026-05-05 20:48 | 50.04239 | 8.56742 | 377 ft | 14 kts | 71° |
| 2026-05-05 20:48 | 50.04270 | 8.56874 | 377 ft | 12 kts | 70° |
| 2026-05-05 20:48 | 50.04297 | 8.56984 | 377 ft | 9 kts | 70° |
| 2026-05-05 20:48 | 50.04317 | 8.57070 | 377 ft | 7 kts | 71° |
| 2026-05-05 20:49 | 50.04335 | 8.57146 | 377 ft | 10 kts | 70° |
| 2026-05-05 20:49 | 50.04369 | 8.57285 | 377 ft | 13 kts | 69° |
| 2026-05-05 20:49 | 50.04405 | 8.57434 | 377 ft | 17 kts | 70° |
| 2026-05-05 20:49 | 50.04445 | 8.57603 | 377 ft | 15 kts | 70° |
| 2026-05-05 20:50 | 50.04478 | 8.57743 | 377 ft | 12 kts | 70° |
| 2026-05-05 20:50 | 50.04497 | 8.57823 | 377 ft | 10 kts | 70° |
| 2026-05-05 20:50 | 50.04527 | 8.57949 | 377 ft | 7 kts | 70° |
| 2026-05-05 20:50 | 50.04545 | 8.58026 | 377 ft | 9 kts | 70° |
| 2026-05-05 20:51 | 50.04578 | 8.58163 | 377 ft | 15 kts | 70° |
| 2026-05-05 20:51 | 50.04614 | 8.58308 | 377 ft | 12 kts | 69° |
| 2026-05-05 20:51 | 50.04643 | 8.58433 | 377 ft | 10 kts | 71° |
| 2026-05-05 20:51 | 50.04645 | 8.58441 | 377 ft | 0 kts | 71° |
| 2026-05-05 20:52 | 50.04648 | 8.58457 | 377 ft | 6 kts | 75° |
| 2026-05-05 20:52 | 50.04625 | 8.58570 | 377 ft | 13 kts | 144° |
| 2026-05-05 20:52 | 50.04539 | 8.58578 | 377 ft | 12 kts | 197° |
| 2026-05-05 20:53 | 50.04465 | 8.58486 | 377 ft | 15 kts | 238° |
| 2026-05-05 20:53 | 50.04405 | 8.58252 | 377 ft | 44 kts | 250° |
| 2026-05-05 20:53 | 50.04220 | 8.57468 | 377 ft | 109 kts | 250° |
| 2026-05-05 20:53 | 50.03880 | 8.56043 | 378 ft | 168 kts | 250° |
| 2026-05-05 20:54 | 50.03419 | 8.54135 | 558 ft | 205 kts | 249° |
| 2026-05-05 20:54 | 50.02910 | 8.52074 | 1369 ft | 202 kts | 248° |
| 2026-05-05 20:54 | 50.02456 | 8.50026 | 2143 ft | 209 kts | 252° |
| 2026-05-05 20:54 | 50.01783 | 8.48036 | 2930 ft | 215 kts | 231° |
| 2026-05-05 20:55 | 50.00635 | 8.46574 | 3763 ft | 219 kts | 208° |
| 2026-05-05 20:55 | 49.99175 | 8.45925 | 4572 ft | 224 kts | 186° |
| 2026-05-05 20:55 | 49.97557 | 8.46172 | 4989 ft | 249 kts | 172° |
| 2026-05-05 20:55 | 49.95708 | 8.46320 | 5043 ft | 284 kts | 186° |
| 2026-05-05 20:56 | 49.93691 | 8.45844 | 5014 ft | 292 kts | 195° |
| 2026-05-05 20:56 | 49.91868 | 8.44709 | 4992 ft | 274 kts | 218° |
| 2026-05-05 20:56 | 49.90558 | 8.42611 | 5005 ft | 273 kts | 237° |
| 2026-05-05 20:56 | 49.89551 | 8.40095 | 5017 ft | 273 kts | 240° |
| 2026-05-05 20:57 | 49.88771 | 8.37396 | 5025 ft | 273 kts | 259° |
| 2026-05-05 20:57 | 49.88667 | 8.34453 | 5019 ft | 275 kts | 271° |
| 2026-05-05 20:57 | 49.88793 | 8.31520 | 5015 ft | 275 kts | 273° |
| 2026-05-05 20:57 | 49.88960 | 8.28533 | 5028 ft | 276 kts | 277° |
| 2026-05-05 20:58 | 49.89566 | 8.25758 | 5014 ft | 277 kts | 299° |
| 2026-05-05 20:58 | 49.90650 | 8.23237 | 5018 ft | 280 kts | 303° |
| 2026-05-05 20:58 | 49.91796 | 8.20812 | 5027 ft | 279 kts | 304° |
| 2026-05-05 20:58 | 49.93105 | 8.18548 | 5019 ft | 292 kts | 321° |
| 2026-05-05 20:59 | 49.94825 | 8.16715 | 5751 ft | 289 kts | 324° |
| 2026-05-05 20:59 | 49.96464 | 8.15040 | 6536 ft | 285 kts | 323° |
| 2026-05-05 20:59 | 49.98129 | 8.13338 | 7082 ft | 288 kts | 323° |
| 2026-05-05 20:59 | 49.99810 | 8.11617 | 7630 ft | 292 kts | 323° |
| 2026-05-05 21:00 | 50.01518 | 8.09868 | 8189 ft | 294 kts | 324° |
| 2026-05-05 21:00 | 50.03206 | 8.08139 | 8725 ft | 296 kts | 324° |
| 2026-05-05 21:00 | 50.04933 | 8.06367 | 9286 ft | 298 kts | 324° |
| 2026-05-05 21:00 | 50.06669 | 8.04585 | 9845 ft | 300 kts | 324° |
| 2026-05-05 21:01 | 50.08402 | 8.02804 | 10205 ft | 309 kts | 324° |
| 2026-05-05 21:01 | 50.10251 | 8.00899 | 10306 ft | 327 kts | 324° |
| 2026-05-05 21:01 | 50.12211 | 7.98877 | 10330 ft | 347 kts | 324° |
| 2026-05-05 21:01 | 50.14288 | 7.96734 | 10420 ft | 365 kts | 324° |
| 2026-05-05 21:02 | 50.16436 | 7.94517 | 10627 ft | 379 kts | 324° |
| 2026-05-05 21:02 | 50.18670 | 7.92211 | 11209 ft | 382 kts | 324° |
| 2026-05-05 21:02 | 50.20866 | 7.89942 | 11829 ft | 384 kts | 324° |
| 2026-05-05 21:02 | 50.23117 | 7.87613 | 12356 ft | 388 kts | 324° |
| 2026-05-05 21:03 | 50.25404 | 7.85246 | 12762 ft | 393 kts | 324° |
| 2026-05-05 21:03 | 50.27683 | 7.82884 | 12832 ft | 395 kts | 324° |
| 2026-05-05 21:03 | 50.29991 | 7.80490 | 12826 ft | 395 kts | 324° |
| 2026-05-05 21:03 | 50.32265 | 7.78128 | 12825 ft | 396 kts | 324° |
| 2026-05-05 21:04 | 50.34571 | 7.75730 | 12828 ft | 400 kts | 324° |
| 2026-05-05 21:04 | 50.36904 | 7.73300 | 13193 ft | 407 kts | 324° |
| 2026-05-05 21:04 | 50.39236 | 7.70870 | 13979 ft | 403 kts | 325° |
| 2026-05-05 21:04 | 50.41576 | 7.68428 | 14582 ft | 404 kts | 325° |
| 2026-05-05 21:05 | 50.43910 | 7.65989 | 15030 ft | 408 kts | 325° |
| 2026-05-05 21:05 | 50.46310 | 7.63479 | 15424 ft | 414 kts | 326° |
| 2026-05-05 21:05 | 50.48999 | 7.60664 | 16005 ft | 417 kts | 326° |
| 2026-05-05 21:05 | 50.51681 | 7.57851 | 16523 ft | 421 kts | 326° |
| 2026-05-05 21:06 | 50.54135 | 7.55275 | 16981 ft | 424 kts | 326° |
| 2026-05-05 21:06 | 50.56679 | 7.52600 | 17426 ft | 427 kts | 326° |
| 2026-05-05 21:06 | 50.59155 | 7.49996 | 17896 ft | 430 kts | 326° |
| 2026-05-05 21:06 | 50.61633 | 7.47386 | 18396 ft | 432 kts | 326° |
| 2026-05-05 21:07 | 50.64133 | 7.44749 | 18841 ft | 435 kts | 326° |
| 2026-05-05 21:07 | 50.66653 | 7.42089 | 19262 ft | 439 kts | 326° |
| 2026-05-05 21:07 | 50.69176 | 7.39422 | 19662 ft | 443 kts | 326° |
| 2026-05-05 21:07 | 50.71717 | 7.36727 | 20098 ft | 445 kts | 324° |
| 2026-05-05 21:08 | 50.74125 | 7.33610 | 20436 ft | 448 kts | 314° |
| 2026-05-05 21:08 | 50.76152 | 7.29946 | 20805 ft | 451 kts | 306° |
| 2026-05-05 21:08 | 50.77994 | 7.25924 | 21220 ft | 453 kts | 304° |
| 2026-05-05 21:08 | 50.79808 | 7.21877 | 21642 ft | 454 kts | 304° |
| 2026-05-05 21:09 | 50.81639 | 7.17780 | 22027 ft | 457 kts | 304° |
| 2026-05-05 21:09 | 50.83477 | 7.13656 | 22399 ft | 460 kts | 304° |
| 2026-05-05 21:09 | 50.85299 | 7.09561 | 22777 ft | 462 kts | 303° |
| 2026-05-05 21:09 | 50.87156 | 7.05380 | 23125 ft | 465 kts | 304° |
| 2026-05-05 21:10 | 50.89011 | 7.01195 | 23447 ft | 469 kts | 304° |
| 2026-05-05 21:10 | 50.90877 | 6.96980 | 23772 ft | 472 kts | 304° |
| 2026-05-05 21:10 | 50.92745 | 6.92757 | 24167 ft | 474 kts | 304° |
| 2026-05-05 21:10 | 50.94651 | 6.88442 | 24561 ft | 476 kts | 304° |
| 2026-05-05 21:11 | 50.96534 | 6.84172 | 24839 ft | 479 kts | 304° |
| 2026-05-05 21:11 | 50.98449 | 6.79821 | 25061 ft | 484 kts | 304° |
| 2026-05-05 21:11 | 51.00372 | 6.75444 | 25345 ft | 488 kts | 304° |
| 2026-05-05 21:11 | 51.02322 | 6.71000 | 25721 ft | 489 kts | 304° |
| 2026-05-05 21:12 | 51.04243 | 6.66613 | 26072 ft | 491 kts | 304° |
| 2026-05-05 21:12 | 51.06208 | 6.62119 | 26362 ft | 494 kts | 304° |
| 2026-05-05 21:12 | 51.08148 | 6.57674 | 26618 ft | 498 kts | 304° |
| 2026-05-05 21:12 | 51.10127 | 6.53129 | 26902 ft | 501 kts | 304° |
| 2026-05-05 21:13 | 51.12093 | 6.48606 | 27207 ft | 503 kts | 304° |
| 2026-05-05 21:13 | 51.14083 | 6.44020 | 27505 ft | 506 kts | 304° |
| 2026-05-05 21:13 | 51.16081 | 6.39409 | 27782 ft | 508 kts | 304° |
| 2026-05-05 21:13 | 51.18093 | 6.34753 | 28091 ft | 511 kts | 303° |
| 2026-05-05 21:14 | 51.20110 | 6.30079 | 28349 ft | 514 kts | 303° |
| 2026-05-05 21:14 | 51.22111 | 6.25434 | 28647 ft | 516 kts | 303° |
| 2026-05-05 21:14 | 51.24154 | 6.20684 | 28954 ft | 518 kts | 303° |
| 2026-05-05 21:14 | 51.26158 | 6.16016 | 29262 ft | 519 kts | 303° |
| 2026-05-05 21:15 | 51.28191 | 6.11268 | 29691 ft | 518 kts | 303° |
| 2026-05-05 21:15 | 51.30185 | 6.06450 | 29832 ft | 521 kts | 302° |
| 2026-05-05 21:15 | 51.34086 | 5.96887 | 29839 ft | 514 kts | 302° |
| 2026-05-05 21:16 | 51.38164 | 5.87552 | 29844 ft | 516 kts | 311° |
| 2026-05-05 21:16 | 51.43358 | 5.79683 | 29843 ft | 516 kts | 318° |
| 2026-05-05 21:17 | 51.48732 | 5.72065 | 29858 ft | 514 kts | 318° |
| 2026-05-05 21:17 | 51.54052 | 5.64494 | 29866 ft | 515 kts | 318° |
| 2026-05-05 21:18 | 51.59382 | 5.56877 | 29871 ft | 515 kts | 318° |
| 2026-05-05 21:18 | 51.64746 | 5.49183 | 29875 ft | 514 kts | 318° |
| 2026-05-05 21:19 | 51.70051 | 5.41548 | 29874 ft | 514 kts | 317° |
| 2026-05-05 21:19 | 51.75326 | 5.33930 | 29874 ft | 513 kts | 316° |
| 2026-05-05 21:20 | 51.80635 | 5.26237 | 29876 ft | 512 kts | 317° |
| 2026-05-05 21:20 | 51.85902 | 5.18579 | 29885 ft | 513 kts | 316° |
| 2026-05-05 21:21 | 51.91195 | 5.10860 | 29881 ft | 511 kts | 316° |
| 2026-05-05 21:21 | 51.96450 | 5.03168 | 29893 ft | 511 kts | 316° |
| 2026-05-05 21:22 | 52.01699 | 4.95459 | 29896 ft | 512 kts | 316° |
| 2026-05-05 21:22 | 52.06945 | 4.87731 | 29906 ft | 512 kts | 316° |
| 2026-05-05 21:23 | 52.12191 | 4.79979 | 29906 ft | 510 kts | 316° |
| 2026-05-05 21:23 | 52.17402 | 4.72250 | 29910 ft | 508 kts | 316° |
| 2026-05-05 21:24 | 52.22776 | 4.64253 | 29916 ft | 509 kts | 316° |
| 2026-05-05 21:24 | 52.27979 | 4.56485 | 29922 ft | 507 kts | 316° |
| 2026-05-05 21:25 | 52.33158 | 4.48727 | 29922 ft | 507 kts | 316° |
| 2026-05-05 21:25 | 52.38312 | 4.40980 | 29925 ft | 506 kts | 316° |
| 2026-05-05 21:26 | 52.43451 | 4.33231 | 29942 ft | 504 kts | 315° |
| 2026-05-05 21:26 | 52.48611 | 4.25423 | 29930 ft | 503 kts | 315° |
| 2026-05-05 21:27 | 52.53734 | 4.17645 | 29930 ft | 504 kts | 315° |
| 2026-05-05 21:27 | 52.58851 | 4.09851 | 29937 ft | 503 kts | 315° |
| 2026-05-05 21:28 | 52.63934 | 4.02083 | 29940 ft | 503 kts | 315° |
| 2026-05-05 21:28 | 52.69045 | 3.94246 | 29951 ft | 502 kts | 315° |
| 2026-05-05 21:29 | 52.74140 | 3.86408 | 29953 ft | 502 kts | 314° |
| 2026-05-05 21:29 | 52.79187 | 3.78618 | 29951 ft | 500 kts | 314° |
| 2026-05-05 21:30 | 52.84248 | 3.70778 | 29951 ft | 500 kts | 314° |
| 2026-05-05 21:30 | 52.89281 | 3.62956 | 29947 ft | 500 kts | 314° |
| 2026-05-05 21:31 | 52.94332 | 3.55082 | 29944 ft | 500 kts | 314° |
| 2026-05-05 21:31 | 52.99384 | 3.47178 | 29948 ft | 501 kts | 314° |
| 2026-05-05 21:32 | 53.04408 | 3.39291 | 29958 ft | 500 kts | 314° |
| 2026-05-05 21:32 | 53.08790 | 3.30455 | 29954 ft | 496 kts | 297° |
| 2026-05-05 21:33 | 53.11406 | 3.20038 | 29961 ft | 485 kts | 282° |
| 2026-05-05 21:33 | 53.13159 | 3.09295 | 29954 ft | 485 kts | 281° |
| 2026-05-05 21:34 | 53.14849 | 2.98481 | 29961 ft | 483 kts | 281° |
| 2026-05-05 21:34 | 53.16504 | 2.87642 | 29957 ft | 486 kts | 281° |
| 2026-05-05 21:35 | 53.18134 | 2.76786 | 29954 ft | 484 kts | 281° |
| 2026-05-05 21:35 | 53.19739 | 2.65973 | 29966 ft | 483 kts | 281° |
| 2026-05-05 21:36 | 53.21327 | 2.55169 | 29961 ft | 482 kts | 281° |
| 2026-05-05 21:36 | 53.22912 | 2.44296 | 29964 ft | 482 kts | 281° |
| 2026-05-05 21:37 | 53.24477 | 2.33482 | 29966 ft | 481 kts | 280° |
| 2026-05-05 21:37 | 53.26021 | 2.22728 | 29968 ft | 479 kts | 280° |
| 2026-05-05 21:38 | 53.27691 | 2.11019 | 29971 ft | 474 kts | 280° |
| 2026-05-05 21:38 | 53.29364 | 1.99175 | 29970 ft | 480 kts | 280° |
| 2026-05-05 21:39 | 53.30872 | 1.88436 | 29971 ft | 477 kts | 280° |
| 2026-05-05 21:39 | 53.32375 | 1.77651 | 29982 ft | 478 kts | 280° |
| 2026-05-05 21:40 | 53.33869 | 1.66853 | 29975 ft | 477 kts | 280° |
| 2026-05-05 21:40 | 53.35342 | 1.56126 | 29977 ft | 477 kts | 280° |
| 2026-05-05 21:41 | 53.36814 | 1.45332 | 29984 ft | 477 kts | 280° |
| 2026-05-05 21:41 | 53.38276 | 1.34532 | 29980 ft | 477 kts | 279° |
| 2026-05-05 21:42 | 53.39726 | 1.23740 | 29988 ft | 477 kts | 279° |
| 2026-05-05 21:42 | 53.41161 | 1.12978 | 29992 ft | 477 kts | 279° |
| 2026-05-05 21:43 | 53.42594 | 1.02157 | 29994 ft | 477 kts | 279° |
| 2026-05-05 21:43 | 53.44015 | 0.91347 | 29989 ft | 476 kts | 279° |
| 2026-05-05 21:44 | 53.45428 | 0.80509 | 29991 ft | 476 kts | 280° |
| 2026-05-05 21:44 | 53.46826 | 0.69704 | 30003 ft | 476 kts | 280° |
| 2026-05-05 21:45 | 53.48212 | 0.58915 | 29999 ft | 476 kts | 280° |
| 2026-05-05 21:45 | 53.49590 | 0.48100 | 30014 ft | 476 kts | 280° |
| 2026-05-05 21:46 | 53.50960 | 0.37271 | 30019 ft | 475 kts | 280° |
| 2026-05-05 21:46 | 53.52322 | 0.26411 | 30014 ft | 475 kts | 279° |
| 2026-05-05 21:47 | 53.53662 | 0.15652 | 30029 ft | 474 kts | 279° |
| 2026-05-05 21:47 | 53.55003 | 0.04793 | 30031 ft | 475 kts | 279° |
| 2026-05-05 21:48 | 53.56329 | -0.06030 | 30037 ft | 475 kts | 280° |
| 2026-05-05 21:48 | 53.57649 | -0.16892 | 30046 ft | 476 kts | 280° |
| 2026-05-05 21:49 | 53.58962 | -0.27777 | 30034 ft | 475 kts | 280° |
| 2026-05-05 21:49 | 53.60256 | -0.38600 | 30032 ft | 476 kts | 280° |
| 2026-05-05 21:50 | 53.61548 | -0.49493 | 30041 ft | 475 kts | 280° |
| 2026-05-05 21:50 | 53.62820 | -0.60308 | 30046 ft | 475 kts | 280° |
| 2026-05-05 21:51 | 53.64097 | -0.71252 | 30040 ft | 475 kts | 279° |
| 2026-05-05 21:51 | 53.65348 | -0.82073 | 30051 ft | 474 kts | 279° |
| 2026-05-05 21:52 | 53.67223 | -0.98448 | 30045 ft | 475 kts | 279° |
| 2026-05-05 21:53 | 53.68457 | -1.09346 | 30054 ft | 474 kts | 279° |
| 2026-05-05 21:53 | 53.69674 | -1.20187 | 30058 ft | 474 kts | 280° |
| 2026-05-05 21:54 | 53.70890 | -1.31112 | 30054 ft | 474 kts | 279° |
| 2026-05-05 21:54 | 53.72090 | -1.41989 | 30059 ft | 474 kts | 279° |
| 2026-05-05 21:55 | 53.73284 | -1.52905 | 30058 ft | 473 kts | 279° |
| 2026-05-05 21:55 | 53.74460 | -1.63757 | 30054 ft | 473 kts | 279° |
| 2026-05-05 21:56 | 53.75631 | -1.74653 | 30059 ft | 473 kts | 279° |
| 2026-05-05 21:56 | 53.76785 | -1.85498 | 30055 ft | 472 kts | 279° |
| 2026-05-05 21:57 | 53.77932 | -1.96370 | 30052 ft | 471 kts | 279° |
| 2026-05-05 21:57 | 53.79075 | -2.07297 | 30043 ft | 472 kts | 279° |
| 2026-05-05 21:58 | 53.80199 | -2.18159 | 30042 ft | 472 kts | 279° |
| 2026-05-05 21:58 | 53.81315 | -2.29030 | 30036 ft | 473 kts | 279° |
| 2026-05-05 21:59 | 53.82423 | -2.39934 | 30048 ft | 471 kts | 279° |
| 2026-05-05 21:59 | 53.83519 | -2.50818 | 30046 ft | 471 kts | 279° |
| 2026-05-05 22:00 | 53.84608 | -2.61732 | 30052 ft | 471 kts | 279° |
| 2026-05-05 22:00 | 53.85688 | -2.72663 | 30066 ft | 472 kts | 278° |
| 2026-05-05 22:01 | 53.86752 | -2.83540 | 30062 ft | 471 kts | 278° |
| 2026-05-05 22:01 | 53.87809 | -2.94460 | 30067 ft | 472 kts | 278° |
| 2026-05-05 22:02 | 53.88861 | -3.05425 | 30074 ft | 472 kts | 278° |
| 2026-05-05 22:02 | 53.89896 | -3.16331 | 30068 ft | 471 kts | 278° |
| 2026-05-05 22:03 | 53.90921 | -3.27228 | 30068 ft | 471 kts | 279° |
| 2026-05-05 22:03 | 53.91940 | -3.38180 | 30072 ft | 470 kts | 279° |
| 2026-05-05 22:04 | 53.92940 | -3.49037 | 30069 ft | 470 kts | 279° |
| 2026-05-05 22:04 | 53.94588 | -3.59762 | 30076 ft | 472 kts | 290° |
| 2026-05-05 22:05 | 53.96796 | -3.70181 | 30074 ft | 471 kts | 288° |
| 2026-05-05 22:05 | 53.98916 | -3.80617 | 30076 ft | 470 kts | 288° |
| 2026-05-05 22:06 | 54.00999 | -3.91160 | 30073 ft | 470 kts | 288° |
| 2026-05-05 22:06 | 54.03033 | -4.01636 | 30075 ft | 469 kts | 288° |
| 2026-05-05 22:07 | 54.05052 | -4.12159 | 30074 ft | 470 kts | 288° |
| 2026-05-05 22:07 | 54.07045 | -4.22638 | 30071 ft | 469 kts | 287° |
| 2026-05-05 22:08 | 54.09043 | -4.33223 | 30074 ft | 469 kts | 287° |
| 2026-05-05 22:08 | 54.11009 | -4.43707 | 30072 ft | 469 kts | 287° |
| 2026-05-05 22:09 | 54.12981 | -4.54289 | 30065 ft | 469 kts | 287° |
| 2026-05-05 22:09 | 54.14938 | -4.64848 | 30074 ft | 468 kts | 288° |
| 2026-05-05 22:10 | 54.16878 | -4.75382 | 30083 ft | 468 kts | 287° |
| 2026-05-05 22:10 | 54.18822 | -4.85994 | 30078 ft | 469 kts | 287° |
| 2026-05-05 22:11 | 54.20741 | -4.96533 | 30076 ft | 468 kts | 287° |
| 2026-05-05 22:11 | 54.22661 | -5.07137 | 30074 ft | 468 kts | 287° |
| 2026-05-05 22:12 | 54.24561 | -5.17691 | 30060 ft | 467 kts | 287° |
| 2026-05-05 22:12 | 54.26451 | -5.28251 | 30068 ft | 467 kts | 287° |
| 2026-05-05 22:13 | 54.28334 | -5.38833 | 30069 ft | 467 kts | 287° |
| 2026-05-05 22:13 | 54.30209 | -5.49437 | 30069 ft | 467 kts | 287° |
| 2026-05-05 22:14 | 54.32070 | -5.60016 | 30072 ft | 466 kts | 287° |
| 2026-05-05 22:14 | 54.33928 | -5.70643 | 30076 ft | 466 kts | 286° |
| 2026-05-05 22:15 | 54.35762 | -5.81197 | 30077 ft | 465 kts | 286° |
| 2026-05-05 22:15 | 54.37589 | -5.91773 | 30072 ft | 465 kts | 286° |
| 2026-05-05 22:16 | 54.39407 | -6.02363 | 30074 ft | 466 kts | 286° |
| 2026-05-05 22:16 | 54.41232 | -6.13051 | 30075 ft | 466 kts | 286° |
| 2026-05-05 22:17 | 54.43032 | -6.23659 | 30078 ft | 466 kts | 286° |
| 2026-05-05 22:17 | 54.44819 | -6.34257 | 30079 ft | 466 kts | 286° |
| 2026-05-05 22:18 | 54.46615 | -6.44972 | 30083 ft | 466 kts | 286° |
| 2026-05-05 22:18 | 54.48386 | -6.55604 | 30082 ft | 465 kts | 286° |
| 2026-05-05 22:19 | 54.50151 | -6.66265 | 30083 ft | 465 kts | 285° |
| 2026-05-05 22:19 | 54.51912 | -6.76967 | 30084 ft | 465 kts | 285° |
| 2026-05-05 22:20 | 54.53659 | -6.87651 | 30077 ft | 465 kts | 285° |
| 2026-05-05 22:20 | 54.55416 | -6.98464 | 30071 ft | 466 kts | 285° |
| 2026-05-05 22:21 | 54.57159 | -7.09256 | 30070 ft | 465 kts | 285° |
| 2026-05-05 22:21 | 54.58883 | -7.19999 | 30075 ft | 464 kts | 285° |
| 2026-05-05 22:22 | 54.60605 | -7.30804 | 30073 ft | 464 kts | 285° |
| 2026-05-05 22:22 | 54.62310 | -7.41565 | 30070 ft | 465 kts | 285° |
| 2026-05-05 22:23 | 54.64027 | -7.52474 | 30072 ft | 465 kts | 285° |
| 2026-05-05 22:23 | 54.65724 | -7.63331 | 30077 ft | 465 kts | 285° |
| 2026-05-05 22:24 | 54.67412 | -7.74199 | 30089 ft | 465 kts | 284° |
| 2026-05-05 22:24 | 54.69087 | -7.85056 | 30084 ft | 465 kts | 284° |
| 2026-05-05 22:25 | 54.70757 | -7.95953 | 30078 ft | 464 kts | 284° |
| 2026-05-05 22:25 | 54.72408 | -8.06795 | 30068 ft | 465 kts | 284° |
| 2026-05-05 22:26 | 54.74056 | -8.17691 | 30073 ft | 462 kts | 284° |
| 2026-05-05 22:26 | 54.75689 | -8.28562 | 30081 ft | 464 kts | 284° |
| 2026-05-05 22:27 | 54.77305 | -8.39394 | 30078 ft | 462 kts | 284° |
| 2026-05-05 22:27 | 54.78918 | -8.50277 | 30079 ft | 463 kts | 284° |
| 2026-05-05 22:28 | 54.80521 | -8.61166 | 30095 ft | 463 kts | 284° |
| 2026-05-05 22:28 | 54.82120 | -8.72110 | 30113 ft | 462 kts | 283° |
| 2026-05-05 22:29 | 54.83697 | -8.82970 | 30115 ft | 462 kts | 283° |
| 2026-05-05 22:29 | 54.85262 | -8.93828 | 30122 ft | 461 kts | 283° |
| 2026-05-05 22:30 | 54.86827 | -9.04764 | 30115 ft | 462 kts | 283° |
| 2026-05-05 22:30 | 54.88371 | -9.15624 | 30109 ft | 461 kts | 283° |
| 2026-05-05 22:31 | 54.89907 | -9.26505 | 30113 ft | 460 kts | 283° |
| 2026-05-05 22:31 | 54.91427 | -9.37348 | 30120 ft | 460 kts | 283° |
| 2026-05-05 22:32 | 54.92930 | -9.48152 | 30112 ft | 460 kts | 283° |
| 2026-05-05 22:32 | 54.94415 | -9.58903 | 30127 ft | 460 kts | 283° |
| 2026-05-05 22:33 | 54.95899 | -9.69721 | 30135 ft | 461 kts | 282° |
| 2026-05-05 22:33 | 54.97384 | -9.80623 | 30134 ft | 460 kts | 282° |
| 2026-05-05 22:34 | 54.98865 | -9.91578 | 30131 ft | 460 kts | 282° |
| 2026-05-05 22:34 | 55.00352 | -10.02526 | 30128 ft | 460 kts | 285° |
| 2026-05-05 22:35 | 55.02692 | -10.13054 | 30137 ft | 461 kts | 291° |
| 2026-05-05 22:35 | 55.05175 | -10.23613 | 30136 ft | 461 kts | 291° |
| 2026-05-05 22:36 | 55.07557 | -10.34031 | 30134 ft | 461 kts | 291° |
| 2026-05-05 22:36 | 55.09887 | -10.44397 | 30132 ft | 462 kts | 290° |
| 2026-05-05 22:37 | 55.12199 | -10.54805 | 30135 ft | 461 kts | 290° |
| 2026-05-05 22:37 | 55.14491 | -10.65211 | 30134 ft | 461 kts | 290° |
| 2026-05-05 22:38 | 55.16777 | -10.75656 | 30139 ft | 461 kts | 290° |
| 2026-05-05 22:38 | 55.19049 | -10.86105 | 30138 ft | 462 kts | 290° |
| 2026-05-05 22:39 | 55.21325 | -10.96628 | 30138 ft | 462 kts | 290° |
| 2026-05-05 22:39 | 55.23566 | -11.07041 | 30138 ft | 462 kts | 290° |
| 2026-05-05 22:40 | 55.25822 | -11.17583 | 30136 ft | 463 kts | 290° |
| 2026-05-05 22:40 | 55.28068 | -11.28135 | 30136 ft | 463 kts | 290° |
| 2026-05-05 22:41 | 55.30289 | -11.38619 | 30135 ft | 463 kts | 290° |
| 2026-05-05 22:41 | 55.32523 | -11.49222 | 30134 ft | 462 kts | 290° |
| 2026-05-05 22:42 | 55.34732 | -11.59764 | 30133 ft | 463 kts | 290° |